createdAt,value
2017-05-28T00:00:22.418Z,24.60
2017-05-28T00:02:51.223Z,24.60
2017-05-28T00:05:20.083Z,24.60
2017-05-28T00:07:48.893Z,24.70
2017-05-28T00:10:17.696Z,24.80
2017-05-28T00:12:46.527Z,24.80
2017-05-28T00:15:15.339Z,24.80
2017-05-28T00:17:44.149Z,24.80
2017-05-28T00:20:12.983Z,24.80
2017-05-28T00:22:41.813Z,24.80
2017-05-28T00:25:10.603Z,24.80
2017-05-28T00:27:39.436Z,24.70
2017-05-28T00:30:08.239Z,24.70
2017-05-28T00:32:37.056Z,24.70
2017-05-28T00:35:05.887Z,24.70
2017-05-28T00:37:34.692Z,24.60
2017-05-28T00:40:03.496Z,24.60
2017-05-28T00:42:32.320Z,24.60
2017-05-28T00:45:01.160Z,24.70
2017-05-28T00:47:29.984Z,24.70
2017-05-28T00:49:58.809Z,24.60
2017-05-28T00:52:27.623Z,24.60
2017-05-28T00:54:56.455Z,24.60
2017-05-28T00:57:25.284Z,24.50
2017-05-28T00:59:54.099Z,24.40
2017-05-28T01:02:22.916Z,24.40
2017-05-28T01:04:51.763Z,24.30
2017-05-28T01:07:20.596Z,24.40
2017-05-28T01:09:49.414Z,24.40
2017-05-28T01:12:18.218Z,24.40
2017-05-28T01:14:47.069Z,24.50
2017-05-28T01:17:15.881Z,24.50
2017-05-28T01:19:44.688Z,24.50
2017-05-28T01:22:13.520Z,24.50
2017-05-28T01:24:42.332Z,24.50
2017-05-28T01:27:11.175Z,24.50
2017-05-28T01:29:39.984Z,24.50
2017-05-28T01:32:08.817Z,24.50
2017-05-28T01:34:37.640Z,24.50
2017-05-28T01:37:06.449Z,24.40
2017-05-28T01:39:35.279Z,24.20
2017-05-28T01:42:04.100Z,24.20
2017-05-28T01:44:32.912Z,24.10
2017-05-28T01:47:01.756Z,24.00
2017-05-28T01:49:30.545Z,23.90
2017-05-28T01:51:59.361Z,23.90
2017-05-28T01:54:28.294Z,23.90
2017-05-28T01:56:57.106Z,23.90
2017-05-28T01:59:25.943Z,23.90
2017-05-28T02:01:54.748Z,23.70
2017-05-28T02:04:23.579Z,23.70
2017-05-28T02:06:52.415Z,23.60
2017-05-28T02:09:21.215Z,23.60
2017-05-28T02:11:50.033Z,23.50
2017-05-28T02:14:18.860Z,23.50
2017-05-28T02:16:47.665Z,23.50
2017-05-28T02:19:16.494Z,23.50
2017-05-28T02:21:45.301Z,23.50
2017-05-28T02:24:14.111Z,23.40
2017-05-28T02:26:42.949Z,23.30
2017-05-28T02:29:11.763Z,23.30
2017-05-28T02:31:40.576Z,23.20
2017-05-28T02:34:09.400Z,23.20
2017-05-28T02:36:38.218Z,23.20
2017-05-28T02:39:07.031Z,23.20
2017-05-28T02:41:35.906Z,23.10
2017-05-28T02:44:04.721Z,23.00
2017-05-28T02:46:33.533Z,23.00
2017-05-28T02:49:02.380Z,23.00
2017-05-28T02:51:31.194Z,23.00
2017-05-28T02:53:59.996Z,23.00
2017-05-28T02:56:28.805Z,23.00
2017-05-28T02:58:57.617Z,22.90
2017-05-28T03:01:26.435Z,22.90
2017-05-28T03:03:55.258Z,23.00
2017-05-28T03:06:24.087Z,22.90
2017-05-28T03:08:52.884Z,23.00
2017-05-28T03:11:21.701Z,23.00
2017-05-28T03:13:50.543Z,23.00
2017-05-28T03:16:19.359Z,23.10
2017-05-28T03:18:48.167Z,23.10
2017-05-28T03:21:16.979Z,23.10
2017-05-28T03:23:45.804Z,23.10
2017-05-28T03:26:14.635Z,23.00
2017-05-28T03:28:43.455Z,23.00
2017-05-28T03:31:12.263Z,23.00
2017-05-28T03:33:41.112Z,23.00
2017-05-28T03:36:09.928Z,23.00
2017-05-28T03:38:38.715Z,22.90
2017-05-28T03:41:07.532Z,23.00
2017-05-28T03:43:36.345Z,22.90
2017-05-28T03:46:05.170Z,22.90
2017-05-28T03:48:33.975Z,22.90
2017-05-28T03:51:02.802Z,23.00
2017-05-28T03:53:31.619Z,23.00
2017-05-28T03:56:00.438Z,23.00
2017-05-28T03:58:29.239Z,22.90
2017-05-28T04:00:58.191Z,22.90
2017-05-28T04:03:27.007Z,22.80
2017-05-28T04:05:55.806Z,22.70
2017-05-28T04:08:24.634Z,22.60
2017-05-28T04:10:53.440Z,22.70
2017-05-28T04:13:22.282Z,22.80
2017-05-28T04:15:51.123Z,22.80
2017-05-28T04:18:19.938Z,22.80
2017-05-28T04:20:48.752Z,22.80
2017-05-28T04:23:17.588Z,22.90
2017-05-28T04:25:46.444Z,22.90
2017-05-28T04:28:15.247Z,22.90
2017-05-28T04:30:44.733Z,22.90
2017-05-28T04:33:13.540Z,22.90
2017-05-28T04:35:42.352Z,23.10
2017-05-28T04:38:11.188Z,23.10
2017-05-28T04:40:40.004Z,23.00
2017-05-28T04:43:08.858Z,23.10
2017-05-28T04:45:37.668Z,23.10
2017-05-28T04:48:06.487Z,23.00
2017-05-28T04:50:35.333Z,23.10
2017-05-28T04:53:04.214Z,23.10
2017-05-28T04:55:33.018Z,23.20
2017-05-28T04:58:01.851Z,23.30
2017-05-28T05:00:30.656Z,23.50
2017-05-28T05:02:59.493Z,23.60
2017-05-28T05:05:28.338Z,23.80
2017-05-28T05:07:57.167Z,23.70
2017-05-28T05:10:25.987Z,23.70
2017-05-28T05:12:54.805Z,23.70
2017-05-28T05:15:24.499Z,23.70
2017-05-28T05:17:53.321Z,23.80
2017-05-28T05:20:22.140Z,23.80
2017-05-28T05:22:50.978Z,23.90
2017-05-28T05:25:19.795Z,24.10
2017-05-28T05:27:48.629Z,24.30
2017-05-28T05:30:17.448Z,24.30
2017-05-28T05:32:47.459Z,24.40
2017-05-28T05:35:16.303Z,24.20
2017-05-28T05:37:45.126Z,24.20
2017-05-28T05:40:13.945Z,24.10
2017-05-28T05:42:42.771Z,24.00
2017-05-28T05:45:11.607Z,23.90
2017-05-28T05:47:40.447Z,23.90
2017-05-28T05:50:09.273Z,23.80
2017-05-28T05:52:38.136Z,23.60
2017-05-28T05:55:06.996Z,23.70
2017-05-28T05:57:35.807Z,23.70
2017-05-28T06:00:04.651Z,23.80
2017-05-28T06:02:33.477Z,24.10
2017-05-28T06:05:02.341Z,24.30
2017-05-28T06:07:31.194Z,24.40
2017-05-28T06:10:00.051Z,24.50
2017-05-28T06:12:28.895Z,24.50
2017-05-28T06:14:58.345Z,24.50
2017-05-28T06:17:27.140Z,24.30
2017-05-28T06:19:55.980Z,24.20
2017-05-28T06:22:24.848Z,24.00
2017-05-28T06:24:53.699Z,23.80
2017-05-28T06:27:22.523Z,23.80
2017-05-28T06:29:51.364Z,23.80
2017-05-28T06:32:20.651Z,23.80
2017-05-28T06:34:49.464Z,23.80
2017-05-28T06:37:18.311Z,23.80
2017-05-28T06:39:47.126Z,23.90
2017-05-28T06:42:15.953Z,23.80
2017-05-28T06:44:44.804Z,23.80
2017-05-28T06:47:13.627Z,23.70
2017-05-28T06:49:42.443Z,23.60
2017-05-28T06:52:11.280Z,23.50
2017-05-28T06:54:40.103Z,23.40
2017-05-28T06:57:08.917Z,23.30
2017-05-28T06:59:37.752Z,23.00
2017-05-28T07:02:06.736Z,22.90
2017-05-28T07:04:35.547Z,22.80
2017-05-28T07:07:04.393Z,22.80
2017-05-28T07:09:33.211Z,22.40
2017-05-28T07:12:02.039Z,22.00
2017-05-28T07:14:30.927Z,21.50
2017-05-28T07:16:59.744Z,21.10
2017-05-28T07:19:28.572Z,21.00
2017-05-28T07:21:57.479Z,20.70
2017-05-28T07:24:26.291Z,20.40
2017-05-28T07:26:55.208Z,20.10
2017-05-28T07:29:24.068Z,20.00
2017-05-28T07:31:52.889Z,19.80
2017-05-28T07:34:21.703Z,19.80
2017-05-28T07:36:50.531Z,19.80
2017-05-28T07:39:19.448Z,19.90
2017-05-28T07:41:48.273Z,19.90
2017-05-28T07:44:17.099Z,19.90
2017-05-28T07:46:45.965Z,20.00
2017-05-28T07:49:14.799Z,20.00
2017-05-28T07:51:43.638Z,20.20
2017-05-28T07:54:12.454Z,20.60
2017-05-28T07:56:41.306Z,21.10
2017-05-28T07:59:10.128Z,21.50
2017-05-28T08:01:38.943Z,21.60
2017-05-28T08:04:07.772Z,21.60
2017-05-28T08:06:36.603Z,21.50
2017-05-28T08:09:05.541Z,21.50
2017-05-28T08:11:34.350Z,21.60
2017-05-28T08:14:03.183Z,21.90
2017-05-28T08:16:32.031Z,22.20
2017-05-28T08:19:00.860Z,22.70
2017-05-28T08:21:29.698Z,23.30
2017-05-28T08:23:58.524Z,23.70
2017-05-28T08:26:27.359Z,23.80
2017-05-28T08:28:56.177Z,24.00
2017-05-28T08:31:25.021Z,24.20
2017-05-28T08:33:53.861Z,24.20
2017-05-28T08:36:22.673Z,24.20
2017-05-28T08:38:51.528Z,24.10
2017-05-28T08:41:20.361Z,23.90
2017-05-28T08:43:49.239Z,23.90
2017-05-28T08:46:18.040Z,24.00
2017-05-28T08:48:46.905Z,24.10
2017-05-28T08:51:16.504Z,24.30
2017-05-28T08:53:45.309Z,24.50
2017-05-28T08:56:14.127Z,25.00
2017-05-28T08:58:42.954Z,25.40
2017-05-28T09:01:11.781Z,26.10
2017-05-28T09:03:40.639Z,26.90
2017-05-28T09:06:09.455Z,27.60
2017-05-28T09:08:38.276Z,28.10
2017-05-28T09:11:07.120Z,29.00
2017-05-28T09:13:35.952Z,30.10
2017-05-28T09:16:04.794Z,30.80
2017-05-28T09:18:33.628Z,30.50
2017-05-28T09:21:02.456Z,29.90
2017-05-28T09:23:31.318Z,29.00
2017-05-28T09:26:00.143Z,28.00
2017-05-28T09:28:28.965Z,27.40
2017-05-28T09:30:57.819Z,27.00
2017-05-28T09:33:26.643Z,26.30
2017-05-28T09:35:55.451Z,25.40
2017-05-28T09:38:25.030Z,24.30
2017-05-28T09:40:53.851Z,23.30
2017-05-28T09:43:22.683Z,22.60
2017-05-28T09:45:51.512Z,22.20
2017-05-28T09:48:20.338Z,21.70
2017-05-28T09:50:49.168Z,21.50
2017-05-28T09:53:17.975Z,21.40
2017-05-28T09:55:46.911Z,21.30
2017-05-28T09:58:15.728Z,21.30
2017-05-28T10:00:44.546Z,21.20
2017-05-28T10:03:13.409Z,21.30
2017-05-28T10:05:42.254Z,21.30
2017-05-28T10:08:11.079Z,21.40
2017-05-28T10:10:39.912Z,21.40
2017-05-28T10:13:08.755Z,21.30
2017-05-28T10:15:37.560Z,21.30
2017-05-28T10:18:06.396Z,21.30
2017-05-28T10:20:35.268Z,21.40
2017-05-28T10:23:04.089Z,21.30
2017-05-28T10:25:32.928Z,21.30
2017-05-28T10:28:01.745Z,21.30
2017-05-28T10:30:31.360Z,21.30
2017-05-28T10:33:00.191Z,21.30
2017-05-28T10:35:29.024Z,21.30
2017-05-28T10:37:57.855Z,21.40
2017-05-28T10:40:26.700Z,21.20
2017-05-28T10:42:55.511Z,21.20
2017-05-28T10:45:24.339Z,21.10
2017-05-28T10:47:53.172Z,21.00
2017-05-28T10:50:22.000Z,20.80
2017-05-28T10:52:50.820Z,20.60
2017-05-28T10:55:19.646Z,20.50
2017-05-28T10:57:48.528Z,20.40
2017-05-28T11:00:17.360Z,20.40
2017-05-28T11:02:46.164Z,20.30
2017-05-28T11:05:15.010Z,20.30
2017-05-28T11:07:43.822Z,20.40
2017-05-28T11:10:12.651Z,20.60
2017-05-28T11:12:41.495Z,20.80
2017-05-28T11:15:10.315Z,21.00
2017-05-28T11:17:39.160Z,21.10
2017-05-28T11:20:08.019Z,21.10
2017-05-28T11:22:40.781Z,21.10
2017-05-28T11:25:09.636Z,21.20
2017-05-28T11:27:38.458Z,21.40
2017-05-28T11:30:07.346Z,21.50
2017-05-28T11:32:36.191Z,21.80
2017-05-28T11:35:05.012Z,22.30
2017-05-28T11:37:33.869Z,23.00
2017-05-28T11:40:02.704Z,23.70
2017-05-28T11:42:31.521Z,24.30
2017-05-28T11:45:00.342Z,24.60
2017-05-28T11:47:29.160Z,24.60
2017-05-28T11:49:57.992Z,24.90
2017-05-28T11:52:26.832Z,25.20
2017-05-28T11:54:55.644Z,25.70
2017-05-28T11:57:24.501Z,26.10
2017-05-28T11:59:53.316Z,26.30
2017-05-28T12:02:22.132Z,26.60
2017-05-28T12:04:50.975Z,26.80
2017-05-28T12:07:19.807Z,27.00
2017-05-28T12:09:48.644Z,27.10
2017-05-28T12:12:17.455Z,27.10
2017-05-28T12:14:46.322Z,27.20
2017-05-28T12:17:15.140Z,27.40
2017-05-28T12:19:43.989Z,27.50
2017-05-28T12:22:12.803Z,27.90
2017-05-28T12:24:41.666Z,28.50
2017-05-28T12:27:10.495Z,29.10
2017-05-28T12:29:39.322Z,29.90
2017-05-28T12:32:08.282Z,30.40
2017-05-28T12:34:37.083Z,30.70
2017-05-28T12:37:05.938Z,31.00
2017-05-28T12:39:34.783Z,31.20
2017-05-28T12:42:04.464Z,31.30
2017-05-28T12:44:33.463Z,31.40
2017-05-28T12:47:02.251Z,31.60
2017-05-28T12:49:31.096Z,31.90
2017-05-28T12:51:59.932Z,32.20
2017-05-28T12:54:28.843Z,32.50
2017-05-28T12:56:57.685Z,32.60
2017-05-28T12:59:27.085Z,32.50
2017-05-28T13:01:55.922Z,32.30
2017-05-28T13:04:24.763Z,32.10
2017-05-28T13:06:53.584Z,31.50
2017-05-28T13:09:22.459Z,30.70
2017-05-28T13:11:51.308Z,30.00
2017-05-28T13:14:20.123Z,29.60
2017-05-28T13:16:48.954Z,29.30
2017-05-28T13:19:17.781Z,29.10
2017-05-28T13:21:46.623Z,29.10
2017-05-28T13:24:15.441Z,29.20
2017-05-28T13:26:44.268Z,29.50
2017-05-28T13:29:13.116Z,29.80
2017-05-28T13:31:42.011Z,30.10
2017-05-28T13:34:10.823Z,30.40
2017-05-28T13:36:39.664Z,30.30
2017-05-28T13:39:08.503Z,30.40
2017-05-28T13:41:37.332Z,30.50
2017-05-28T13:44:06.196Z,30.70
2017-05-28T13:46:35.024Z,30.60
2017-05-28T13:49:03.852Z,30.70
2017-05-28T13:51:32.719Z,30.80
2017-05-28T13:54:01.575Z,30.80
2017-05-28T13:56:30.428Z,30.70
2017-05-28T13:58:59.261Z,30.40
2017-05-28T14:01:28.083Z,30.60
2017-05-28T14:03:56.895Z,30.90
2017-05-28T14:06:25.735Z,31.00
2017-05-28T14:08:54.552Z,31.20
2017-05-28T14:11:24.143Z,31.20
2017-05-28T14:13:52.988Z,31.30
2017-05-28T14:16:21.832Z,31.40
2017-05-28T14:18:51.622Z,31.30
2017-05-28T14:21:20.433Z,30.90
2017-05-28T14:23:49.258Z,31.10
2017-05-28T14:26:18.199Z,31.20
2017-05-28T14:28:47.051Z,31.40
2017-05-28T14:31:15.873Z,31.30
2017-05-28T14:33:44.793Z,31.10
2017-05-28T14:36:13.636Z,31.30
2017-05-28T14:38:42.472Z,31.30
2017-05-28T14:41:11.303Z,31.40
2017-05-28T14:43:40.163Z,31.40
2017-05-28T14:46:08.995Z,31.70
2017-05-28T14:48:37.836Z,32.00
2017-05-28T14:51:06.690Z,32.20
2017-05-28T14:53:35.519Z,32.40
2017-05-28T14:56:04.335Z,32.40
2017-05-28T14:58:33.183Z,32.60
2017-05-28T15:01:02.024Z,32.80
2017-05-28T15:03:30.867Z,32.80
2017-05-28T15:05:59.710Z,32.80
2017-05-28T15:08:28.886Z,32.60
2017-05-28T15:10:57.687Z,32.40
2017-05-28T15:13:26.527Z,32.30
2017-05-28T15:15:55.366Z,32.20
2017-05-28T15:18:24.172Z,32.00
2017-05-28T15:20:53.001Z,32.00
2017-05-28T15:23:21.840Z,32.10
2017-05-28T15:25:50.645Z,32.30
2017-05-28T15:28:19.464Z,32.30
2017-05-28T15:30:48.295Z,32.30
2017-05-28T15:33:18.232Z,32.30
2017-05-28T15:35:47.076Z,32.20
2017-05-28T15:38:15.929Z,32.20
2017-05-28T15:40:44.737Z,32.00
2017-05-28T15:43:13.569Z,31.80
2017-05-28T15:45:42.432Z,31.60
2017-05-28T15:48:11.255Z,31.30
2017-05-28T15:50:40.055Z,31.10
2017-05-28T15:53:08.887Z,31.00
2017-05-28T15:55:37.744Z,31.00
2017-05-28T15:58:06.535Z,31.00
2017-05-28T16:00:35.363Z,31.10
2017-05-28T16:03:04.192Z,31.10
2017-05-28T16:05:33.020Z,31.20
2017-05-28T16:08:01.820Z,31.30
2017-05-28T16:10:30.680Z,31.50
2017-05-28T16:13:00.267Z,31.60
2017-05-28T16:15:30.019Z,31.60
2017-05-28T16:17:58.857Z,31.50
2017-05-28T16:20:27.711Z,31.40
2017-05-28T16:22:56.527Z,31.40
2017-05-28T16:25:25.360Z,31.50
2017-05-28T16:27:54.165Z,31.50
2017-05-28T16:43:23.211Z,31.10
2017-05-28T16:45:52.017Z,31.20
2017-05-28T16:48:20.826Z,31.10
2017-05-28T16:50:49.661Z,31.00
2017-05-28T16:53:18.487Z,30.70
2017-05-28T16:55:47.715Z,30.50
2017-05-28T16:58:16.711Z,30.40
2017-05-28T17:00:45.536Z,30.20
2017-05-28T17:03:14.343Z,30.10
2017-05-28T17:05:43.178Z,30.00
2017-05-28T17:08:12.018Z,30.00
2017-05-28T17:10:40.848Z,29.90
2017-05-28T17:13:09.680Z,29.70
2017-05-28T17:15:38.543Z,29.70
2017-05-28T17:18:07.356Z,29.60
2017-05-28T17:20:36.178Z,29.60
2017-05-28T17:23:05.045Z,29.60
2017-05-28T17:25:33.860Z,29.60
2017-05-28T17:28:02.678Z,29.60
2017-05-28T17:30:31.516Z,29.60
2017-05-28T17:33:00.396Z,29.60
2017-05-28T17:35:29.254Z,29.50
2017-05-28T17:37:58.176Z,29.40
2017-05-28T17:40:27.002Z,29.20
2017-05-28T17:42:55.831Z,29.10
2017-05-28T17:45:24.692Z,29.00
2017-05-28T17:47:53.559Z,29.00
2017-05-28T17:50:22.375Z,28.90
2017-05-28T17:52:51.225Z,28.70
2017-05-28T17:55:20.071Z,28.60
2017-05-28T17:57:48.916Z,28.50
2017-05-28T18:00:17.748Z,28.40
2017-05-28T18:02:46.908Z,28.30
2017-05-28T18:05:15.700Z,28.30
2017-05-28T18:07:44.527Z,28.20
2017-05-28T18:10:13.372Z,28.30
2017-05-28T18:12:42.195Z,28.30
2017-05-28T18:15:11.019Z,28.40
2017-05-28T18:17:39.858Z,28.40
2017-05-28T18:20:08.731Z,28.40
2017-05-28T18:22:37.571Z,28.40
2017-05-28T18:25:06.410Z,28.50
2017-05-28T18:27:35.215Z,28.50
2017-05-28T18:30:04.074Z,28.40
2017-05-28T18:32:32.873Z,28.30
2017-05-28T18:35:01.700Z,28.20
2017-05-28T18:37:30.576Z,28.20
2017-05-28T18:39:59.424Z,28.10
2017-05-28T18:42:29.245Z,28.00
2017-05-28T18:44:58.083Z,27.80
2017-05-28T18:47:26.904Z,27.60
2017-05-28T18:49:55.764Z,27.50
2017-05-28T18:52:24.592Z,27.40
2017-05-28T18:54:53.444Z,27.20
2017-05-28T18:57:22.270Z,27.10
2017-05-28T18:59:51.944Z,27.00
2017-05-28T19:02:20.785Z,26.90
2017-05-28T19:04:49.612Z,26.80
2017-05-28T19:07:18.443Z,26.80
2017-05-28T19:09:47.301Z,26.60
2017-05-28T19:12:16.127Z,26.40
2017-05-28T19:14:44.994Z,26.30
2017-05-28T19:17:13.840Z,26.20
2017-05-28T19:19:42.719Z,26.10
2017-05-28T19:22:11.473Z,26.00
2017-05-28T19:24:40.308Z,26.00
2017-05-28T19:27:09.149Z,25.90
2017-05-28T19:29:38.012Z,25.80
2017-05-28T19:32:06.813Z,25.70
2017-05-28T19:34:35.637Z,25.60
2017-05-28T19:37:04.481Z,25.50
2017-05-28T19:39:33.306Z,25.50
2017-05-28T19:42:02.133Z,25.50
2017-05-28T19:44:31.030Z,25.40
2017-05-28T19:46:59.888Z,25.30
2017-05-28T19:49:28.739Z,25.20
2017-05-28T19:51:57.597Z,25.10
2017-05-28T19:54:26.567Z,25.10
2017-05-28T19:56:55.399Z,25.00
2017-05-28T19:59:24.225Z,25.00
2017-05-28T20:01:53.043Z,25.00
2017-05-28T20:04:21.887Z,25.00
2017-05-28T20:06:50.701Z,24.90
2017-05-28T20:09:20.251Z,24.90
2017-05-28T20:11:49.078Z,24.80
2017-05-28T20:14:17.893Z,24.70
2017-05-28T20:16:47.018Z,24.70
2017-05-28T20:19:16.333Z,24.70
2017-05-28T20:21:45.160Z,24.70
2017-05-28T20:24:13.982Z,24.70
2017-05-28T20:26:42.826Z,24.70
2017-05-28T20:29:11.737Z,24.80
2017-05-28T20:31:40.560Z,24.80
2017-05-28T20:34:09.391Z,24.80
2017-05-28T20:36:38.251Z,24.70
2017-05-28T20:39:07.692Z,24.70
2017-05-28T20:41:36.584Z,24.70
2017-05-28T20:44:06.879Z,24.70
2017-05-28T20:46:35.686Z,24.70
2017-05-28T20:49:04.505Z,24.60
2017-05-28T20:51:33.350Z,24.60
2017-05-28T20:54:02.186Z,24.50
2017-05-28T20:56:31.013Z,24.40
2017-05-28T20:58:59.861Z,24.40
2017-05-28T21:01:28.683Z,24.40
2017-05-28T21:03:57.760Z,24.30
2017-05-28T21:06:26.591Z,24.40
2017-05-28T21:08:55.407Z,24.30
2017-05-28T21:11:24.243Z,24.30
2017-05-28T21:13:53.680Z,24.30
2017-05-28T21:16:22.529Z,24.20
2017-05-28T21:18:51.375Z,24.30
2017-05-28T21:21:20.197Z,24.20
2017-05-28T21:23:49.034Z,24.20
2017-05-28T21:26:17.884Z,24.10
2017-05-28T21:28:46.704Z,24.10
2017-05-28T21:31:15.552Z,24.00
2017-05-28T21:33:44.391Z,24.00
2017-05-28T21:36:13.215Z,24.00
2017-05-28T21:38:42.061Z,23.90
2017-05-28T21:41:10.888Z,23.90
2017-05-28T21:43:39.709Z,23.80
2017-05-28T21:46:08.646Z,23.70
2017-05-28T21:48:37.443Z,23.70
2017-05-28T21:51:06.294Z,23.70
2017-05-28T21:53:35.162Z,23.70
2017-05-28T21:56:04.005Z,23.60
2017-05-28T21:58:32.810Z,23.60
2017-05-28T22:01:01.629Z,23.60
2017-05-28T22:03:30.496Z,23.60
2017-05-28T22:05:59.311Z,23.60
2017-05-28T22:08:28.123Z,23.60
2017-05-28T22:10:56.946Z,23.60
2017-05-28T22:13:25.780Z,23.70
2017-05-28T22:15:54.637Z,23.70
2017-05-28T22:18:23.459Z,23.70
2017-05-28T22:20:52.288Z,23.80
2017-05-28T22:23:21.613Z,23.70
2017-05-28T22:25:50.432Z,23.70
2017-05-28T22:28:19.248Z,23.70
2017-05-28T22:30:48.095Z,23.70
2017-05-28T22:33:16.914Z,23.70
2017-05-28T22:35:45.841Z,23.80
2017-05-28T22:38:14.636Z,23.70
2017-05-28T22:40:43.453Z,23.70
2017-05-28T22:43:12.292Z,23.80
2017-05-28T22:45:41.115Z,23.80
2017-05-28T22:48:09.955Z,23.80
2017-05-28T22:50:38.791Z,23.90
2017-05-28T22:53:07.619Z,23.80
2017-05-28T22:55:36.459Z,23.80
2017-05-28T22:58:05.291Z,23.80
2017-05-28T23:00:34.100Z,23.70
2017-05-28T23:03:03.656Z,23.70
2017-05-28T23:05:32.523Z,23.70
2017-05-28T23:08:01.362Z,23.70
2017-05-28T23:10:30.219Z,23.60
2017-05-28T23:12:59.023Z,23.60
2017-05-28T23:15:27.846Z,23.60
2017-05-28T23:17:56.684Z,23.50
2017-05-28T23:20:25.510Z,23.50
2017-05-28T23:22:54.355Z,23.40
2017-05-28T23:25:23.173Z,23.30
2017-05-28T23:27:51.999Z,23.30
2017-05-28T23:30:20.835Z,23.30
2017-05-28T23:32:49.663Z,23.30
2017-05-28T23:35:18.489Z,23.40
2017-05-28T23:37:47.334Z,23.40
2017-05-28T23:40:16.154Z,23.40
2017-05-28T23:42:44.972Z,23.40
2017-05-28T23:45:14.428Z,23.40
2017-05-28T23:47:43.264Z,23.40
2017-05-28T23:50:12.151Z,23.40
2017-05-28T23:52:40.987Z,23.30
2017-05-28T23:55:09.829Z,23.40
2017-05-28T23:57:38.641Z,23.40
